createdAt,value
2019-03-30T00:00:01.266Z,9.02
2019-03-30T00:01:01.248Z,9.02
2019-03-30T00:02:01.238Z,9.06
2019-03-30T00:03:01.229Z,9.14
2019-03-30T00:04:01.226Z,9.11
2019-03-30T00:05:01.209Z,9.21
2019-03-30T00:06:01.197Z,9.25
2019-03-30T00:07:01.184Z,9.25
2019-03-30T00:08:01.177Z,9.26
2019-03-30T00:09:01.165Z,9.32
2019-03-30T00:10:01.154Z,9.29
2019-03-30T00:11:01.142Z,9.31
2019-03-30T00:12:01.131Z,9.29
2019-03-30T00:13:01.120Z,9.32
2019-03-30T00:14:01.115Z,9.25
2019-03-30T00:15:01.102Z,9.37
2019-03-30T00:16:01.089Z,9.23
2019-03-30T00:17:01.076Z,9.29
2019-03-30T00:18:01.067Z,9.26
2019-03-30T00:19:01.057Z,9.28
2019-03-30T00:20:01.046Z,9.26
2019-03-30T00:21:01.034Z,9.22
2019-03-30T00:22:01.024Z,9.16
2019-03-30T00:23:01.014Z,9.10
2019-03-30T00:24:01.001Z,9.13
2019-03-30T00:25:00.991Z,8.99
2019-03-30T00:26:00.983Z,8.97
2019-03-30T00:27:02.020Z,9.02
2019-03-30T00:28:00.959Z,8.89
2019-03-30T00:29:00.950Z,8.89
2019-03-30T00:30:00.943Z,8.81
2019-03-30T00:31:00.928Z,8.88
2019-03-30T00:32:00.920Z,8.91
2019-03-30T00:33:00.906Z,8.87
2019-03-30T00:34:00.908Z,8.87
2019-03-30T00:35:00.889Z,8.92
2019-03-30T00:36:00.877Z,8.91
2019-03-30T00:37:00.864Z,8.79
2019-03-30T00:38:00.855Z,8.82
2019-03-30T00:39:00.844Z,8.81
2019-03-30T00:40:00.842Z,8.89
2019-03-30T00:41:00.822Z,8.89
2019-03-30T00:42:00.813Z,8.88
2019-03-30T00:43:00.803Z,8.89
2019-03-30T00:44:00.788Z,8.85
2019-03-30T00:45:00.786Z,8.73
2019-03-30T00:46:00.768Z,8.74
2019-03-30T00:47:00.758Z,8.73
2019-03-30T00:48:00.746Z,8.70
2019-03-30T00:49:00.736Z,8.66
2019-03-30T00:50:00.725Z,8.58
2019-03-30T00:51:00.715Z,8.52
2019-03-30T00:52:00.704Z,8.56
2019-03-30T00:53:00.693Z,8.63
2019-03-30T00:54:00.683Z,8.56
2019-03-30T00:55:00.672Z,8.66
2019-03-30T00:56:00.661Z,8.76
2019-03-30T00:57:00.650Z,8.73
2019-03-30T00:58:00.641Z,8.74
2019-03-30T00:59:00.630Z,8.76
2019-03-30T01:00:01.785Z,8.71
2019-03-30T01:01:00.608Z,8.79
2019-03-30T01:02:00.600Z,8.70
2019-03-30T01:03:00.587Z,8.74
2019-03-30T01:04:00.576Z,8.63
2019-03-30T01:05:00.566Z,8.73
2019-03-30T01:06:00.557Z,8.71
2019-03-30T01:07:00.548Z,8.76
2019-03-30T01:08:00.533Z,8.84
2019-03-30T01:09:00.525Z,8.85
2019-03-30T01:10:00.513Z,8.71
2019-03-30T01:11:00.501Z,8.74
2019-03-30T01:12:00.489Z,8.84
2019-03-30T01:13:00.480Z,8.70
2019-03-30T01:14:00.469Z,8.79
2019-03-30T01:15:00.459Z,8.81
2019-03-30T01:16:00.447Z,8.74
2019-03-30T01:17:00.437Z,8.70
2019-03-30T01:18:00.427Z,8.71
2019-03-30T01:19:00.418Z,8.73
2019-03-30T01:20:03.190Z,8.64
2019-03-30T01:21:00.393Z,8.67
2019-03-30T01:22:00.383Z,8.67
2019-03-30T01:23:00.374Z,8.60
2019-03-30T01:24:00.362Z,8.58
2019-03-30T01:25:00.402Z,8.60
2019-03-30T01:26:00.340Z,8.48
2019-03-30T01:27:00.883Z,8.45
2019-03-30T01:28:00.318Z,8.45
2019-03-30T01:29:00.306Z,8.41
2019-03-30T01:30:00.296Z,8.41
2019-03-30T01:31:00.287Z,8.36
2019-03-30T01:32:00.275Z,8.31
2019-03-30T01:33:00.265Z,8.38
2019-03-30T01:34:00.253Z,8.30
2019-03-30T01:35:00.350Z,8.31
2019-03-30T01:36:00.235Z,8.31
2019-03-30T01:37:00.221Z,8.20
2019-03-30T01:38:00.260Z,8.26
2019-03-30T01:39:00.254Z,8.16
2019-03-30T01:40:00.316Z,8.20
2019-03-30T01:41:00.287Z,8.23
2019-03-30T01:42:00.166Z,8.24
2019-03-30T01:43:00.256Z,8.28
2019-03-30T01:44:00.195Z,8.31
2019-03-30T01:45:00.252Z,8.36
2019-03-30T01:46:01.875Z,8.24
2019-03-30T01:47:00.113Z,8.16
2019-03-30T01:48:00.106Z,8.20
2019-03-30T01:49:00.094Z,8.18
2019-03-30T01:50:00.363Z,8.10
2019-03-30T01:51:00.070Z,8.06
2019-03-30T01:52:00.066Z,8.06
2019-03-30T01:53:00.055Z,7.95
2019-03-30T01:54:00.055Z,8.13
2019-03-30T01:55:00.027Z,8.19
2019-03-30T01:56:00.015Z,8.15
2019-03-30T01:57:00.004Z,8.19
2019-03-30T01:57:59.994Z,8.19
2019-03-30T01:58:59.983Z,8.16
2019-03-30T01:59:59.971Z,8.18
2019-03-30T02:00:59.960Z,8.26
2019-03-30T02:01:59.950Z,8.16
2019-03-30T02:02:59.941Z,8.19
2019-03-30T02:03:59.927Z,8.19
2019-03-30T02:04:59.916Z,8.20
2019-03-30T02:05:59.906Z,8.31
2019-03-30T02:06:59.896Z,8.30
2019-03-30T02:07:59.884Z,8.27
2019-03-30T02:08:59.874Z,8.28
2019-03-30T02:09:59.862Z,8.34
2019-03-30T02:10:59.852Z,8.37
2019-03-30T02:11:59.840Z,8.33
2019-03-30T02:12:59.830Z,8.26
2019-03-30T02:13:59.819Z,8.28
2019-03-30T02:14:59.811Z,8.37
2019-03-30T02:15:59.797Z,8.30
2019-03-30T02:16:59.786Z,8.27
2019-03-30T02:17:59.776Z,8.28
2019-03-30T02:18:59.765Z,8.18
2019-03-30T02:19:59.753Z,8.16
2019-03-30T02:20:59.745Z,8.10
2019-03-30T02:21:59.734Z,8.15
2019-03-30T02:22:59.722Z,8.12
2019-03-30T02:23:59.710Z,8.12
2019-03-30T02:24:59.701Z,8.23
2019-03-30T02:25:59.689Z,8.19
2019-03-30T02:26:59.678Z,8.18
2019-03-30T02:27:59.670Z,8.06
2019-03-30T02:28:59.660Z,7.98
2019-03-30T02:29:59.647Z,8.08
2019-03-30T02:30:59.636Z,8.15
2019-03-30T02:31:59.625Z,8.00
2019-03-30T02:32:59.618Z,8.00
2019-03-30T02:33:59.613Z,8.18
2019-03-30T02:34:59.592Z,8.26
2019-03-30T02:35:59.582Z,8.19
2019-03-30T02:36:59.571Z,8.20
2019-03-30T02:37:59.560Z,8.23
2019-03-30T02:38:59.559Z,8.18
2019-03-30T02:39:59.542Z,8.26
2019-03-30T02:40:59.528Z,8.15
2019-03-30T02:41:59.520Z,8.18
2019-03-30T02:42:59.510Z,8.08
2019-03-30T02:43:59.496Z,8.10
2019-03-30T02:44:59.484Z,8.08
2019-03-30T02:45:59.477Z,8.00
2019-03-30T02:46:59.467Z,8.06
2019-03-30T02:47:59.453Z,8.15
2019-03-30T02:48:59.443Z,8.16
2019-03-30T02:49:59.444Z,8.09
2019-03-30T02:50:59.422Z,8.15
2019-03-30T02:51:59.409Z,7.98
2019-03-30T02:52:59.399Z,8.06
2019-03-30T02:53:59.391Z,7.98
2019-03-30T02:54:59.380Z,7.93
2019-03-30T02:55:59.367Z,8.01
2019-03-30T02:56:59.357Z,8.00
2019-03-30T02:57:59.350Z,7.95
2019-03-30T02:58:59.338Z,7.94
2019-03-30T02:59:59.323Z,7.93
2019-03-30T03:00:59.324Z,7.97
2019-03-30T03:01:59.302Z,7.87
2019-03-30T03:02:59.291Z,7.83
2019-03-30T03:03:59.280Z,7.82
2019-03-30T03:04:59.272Z,7.83
2019-03-30T03:05:59.263Z,7.87
2019-03-30T03:06:59.249Z,7.82
2019-03-30T03:07:59.237Z,7.82
2019-03-30T03:08:59.232Z,7.67
2019-03-30T03:09:59.242Z,7.76
2019-03-30T03:10:59.215Z,7.69
2019-03-30T03:11:59.193Z,7.70
2019-03-30T03:12:59.184Z,7.70
2019-03-30T03:13:59.173Z,7.57
2019-03-30T03:14:59.162Z,7.57
2019-03-30T03:15:59.152Z,7.51
2019-03-30T03:16:59.139Z,7.48
2019-03-30T03:17:59.129Z,7.45
2019-03-30T03:18:59.147Z,7.50
2019-03-30T03:19:59.108Z,7.38
2019-03-30T03:21:07.446Z,7.36
2019-03-30T03:21:59.088Z,7.31
2019-03-30T03:22:59.075Z,7.29
2019-03-30T03:23:59.064Z,7.38
2019-03-30T03:24:59.061Z,7.35
2019-03-30T03:25:59.057Z,7.31
2019-03-30T03:26:59.031Z,7.29
2019-03-30T03:27:59.029Z,7.31
2019-03-30T03:28:59.009Z,7.28
2019-03-30T03:29:59.001Z,7.38
2019-03-30T03:30:58.991Z,7.23
2019-03-30T03:31:58.978Z,7.24
2019-03-30T03:32:58.967Z,7.17
2019-03-30T03:33:58.999Z,7.18
2019-03-30T03:34:58.964Z,7.11
2019-03-30T03:35:58.997Z,7.20
2019-03-30T03:36:58.922Z,7.13
2019-03-30T03:37:58.912Z,7.15
2019-03-30T03:38:58.901Z,7.06
2019-03-30T03:39:58.890Z,7.05
2019-03-30T03:40:58.881Z,7.21
2019-03-30T03:41:58.869Z,7.13
2019-03-30T03:42:58.858Z,7.20
2019-03-30T03:43:58.846Z,7.21
2019-03-30T03:44:58.834Z,7.29
2019-03-30T03:45:58.825Z,7.31
2019-03-30T03:46:58.813Z,7.35
2019-03-30T03:47:58.802Z,7.33
2019-03-30T03:48:58.791Z,7.29
2019-03-30T03:49:58.797Z,7.39
2019-03-30T03:50:58.911Z,7.48
2019-03-30T03:51:58.770Z,7.60
2019-03-30T03:52:58.749Z,7.66
2019-03-30T03:53:58.737Z,7.61
2019-03-30T03:54:58.734Z,7.69
2019-03-30T03:55:58.713Z,7.73
2019-03-30T03:56:58.705Z,7.79
2019-03-30T03:57:58.692Z,7.87
2019-03-30T03:58:58.681Z,7.95
2019-03-30T03:59:58.671Z,8.01
2019-03-30T04:00:58.659Z,8.00
2019-03-30T04:01:58.649Z,8.05
2019-03-30T04:02:58.638Z,8.00
2019-03-30T04:03:58.646Z,7.94
2019-03-30T04:04:58.624Z,7.88
2019-03-30T04:05:58.605Z,7.83
2019-03-30T04:06:58.594Z,7.82
2019-03-30T04:07:58.581Z,7.72
2019-03-30T04:08:58.574Z,7.69
2019-03-30T04:09:58.561Z,7.54
2019-03-30T04:10:58.548Z,7.51
2019-03-30T04:11:58.539Z,7.42
2019-03-30T04:12:58.527Z,7.45
2019-03-30T04:13:58.516Z,7.35
2019-03-30T04:14:58.510Z,7.32
2019-03-30T04:15:58.496Z,7.33
2019-03-30T04:16:58.488Z,7.24
2019-03-30T04:17:58.480Z,7.33
2019-03-30T04:18:58.462Z,7.24
2019-03-30T04:19:58.449Z,7.18
2019-03-30T04:20:58.439Z,7.17
2019-03-30T04:21:58.429Z,7.13
2019-03-30T04:22:58.430Z,7.18
2019-03-30T04:23:58.407Z,7.11
2019-03-30T04:24:58.395Z,6.99
2019-03-30T04:25:58.388Z,7.05
2019-03-30T04:26:58.373Z,7.02
2019-03-30T04:27:58.361Z,7.07
2019-03-30T04:28:58.356Z,6.99
2019-03-30T04:29:58.341Z,6.93
2019-03-30T04:30:58.330Z,7.02
2019-03-30T04:31:58.323Z,6.85
2019-03-30T04:32:58.311Z,6.82
2019-03-30T04:33:58.296Z,6.88
2019-03-30T04:34:58.343Z,6.79
2019-03-30T04:35:58.273Z,6.78
2019-03-30T04:36:58.262Z,6.82
2019-03-30T04:37:58.252Z,6.67
2019-03-30T04:38:58.244Z,6.64
2019-03-30T04:39:58.260Z,6.67
2019-03-30T04:40:58.220Z,6.70
2019-03-30T04:41:58.215Z,6.72
2019-03-30T04:42:58.195Z,6.72
2019-03-30T04:43:58.184Z,6.74
2019-03-30T04:44:58.172Z,6.67
2019-03-30T04:45:58.162Z,6.67
2019-03-30T04:46:58.151Z,6.64
2019-03-30T04:47:58.143Z,6.74
2019-03-30T04:48:58.138Z,6.72
2019-03-30T04:49:58.121Z,6.67
2019-03-30T04:50:58.106Z,6.81
2019-03-30T04:51:58.282Z,6.97
2019-03-30T04:52:58.083Z,6.96
2019-03-30T04:53:58.072Z,7.07
2019-03-30T04:54:58.070Z,7.20
2019-03-30T04:55:58.051Z,7.21
2019-03-30T04:56:58.039Z,7.18
2019-03-30T04:57:58.110Z,7.18
2019-03-30T04:58:58.018Z,7.20
2019-03-30T04:59:58.006Z,7.11
2019-03-30T05:00:57.993Z,7.14
2019-03-30T05:01:57.983Z,7.20
2019-03-30T05:02:57.972Z,7.18
2019-03-30T05:03:57.965Z,7.21
2019-03-30T05:04:57.949Z,7.21
2019-03-30T05:05:57.942Z,7.17
2019-03-30T05:06:57.926Z,7.21
2019-03-30T05:07:57.918Z,7.31
2019-03-30T05:08:57.905Z,7.33
2019-03-30T05:09:57.899Z,7.32
2019-03-30T05:10:57.882Z,7.20
2019-03-30T05:11:57.871Z,7.21
2019-03-30T05:12:57.859Z,7.23
2019-03-30T05:13:57.850Z,7.11
2019-03-30T05:14:57.839Z,7.05
2019-03-30T05:15:57.829Z,6.96
2019-03-30T05:16:57.818Z,7.02
2019-03-30T05:17:57.804Z,6.87
2019-03-30T05:18:57.793Z,6.92
2019-03-30T05:19:57.781Z,6.84
2019-03-30T05:20:57.770Z,6.79
2019-03-30T05:22:11.130Z,6.87
2019-03-30T05:22:57.749Z,6.81
2019-03-30T05:23:57.737Z,6.77
2019-03-30T05:24:57.726Z,6.64
2019-03-30T05:25:57.715Z,6.72
2019-03-30T05:26:57.704Z,6.66
2019-03-30T05:27:57.692Z,6.77
2019-03-30T05:28:57.684Z,6.70
2019-03-30T05:29:57.670Z,6.70
2019-03-30T05:30:57.659Z,6.62
2019-03-30T05:31:57.649Z,6.70
2019-03-30T05:33:05.647Z,6.64
2019-03-30T05:33:57.625Z,6.72
2019-03-30T05:34:57.618Z,6.66
2019-03-30T05:35:57.607Z,6.60
2019-03-30T05:36:57.591Z,6.60
2019-03-30T05:37:57.599Z,6.60
2019-03-30T05:38:57.570Z,6.59
2019-03-30T05:39:57.561Z,6.66
2019-03-30T05:40:57.548Z,6.70
2019-03-30T05:41:57.536Z,6.69
2019-03-30T05:42:57.526Z,6.77
2019-03-30T05:43:57.519Z,6.81
2019-03-30T05:44:57.936Z,6.95
2019-03-30T05:45:57.504Z,7.05
2019-03-30T05:46:57.487Z,6.87
2019-03-30T05:47:57.472Z,6.89
2019-03-30T05:48:57.466Z,6.96
2019-03-30T05:49:57.448Z,7.05
2019-03-30T05:50:57.440Z,6.95
2019-03-30T05:51:57.444Z,7.03
2019-03-30T05:52:57.415Z,6.96
2019-03-30T05:53:57.402Z,6.97
2019-03-30T05:54:57.390Z,7.02
2019-03-30T05:55:57.379Z,7.07
2019-03-30T05:56:57.368Z,6.99
2019-03-30T05:57:57.357Z,6.97
2019-03-30T05:58:57.345Z,6.97
2019-03-30T05:59:57.343Z,6.99
2019-03-30T06:00:57.323Z,6.97
2019-03-30T06:01:57.313Z,7.07
2019-03-30T06:02:57.302Z,7.13
2019-03-30T06:03:57.290Z,7.13
2019-03-30T06:04:58.667Z,7.13
2019-03-30T06:05:57.352Z,7.14
2019-03-30T06:06:57.258Z,7.18
2019-03-30T06:07:57.247Z,7.18
2019-03-30T06:08:57.236Z,7.21
2019-03-30T06:09:57.225Z,7.23
2019-03-30T06:10:57.214Z,7.18
2019-03-30T06:11:57.203Z,7.21
2019-03-30T06:12:57.192Z,7.24
2019-03-30T06:13:57.183Z,7.33
2019-03-30T06:14:57.171Z,7.33
2019-03-30T06:15:57.160Z,7.36
2019-03-30T06:16:57.149Z,7.43
2019-03-30T06:17:57.138Z,7.51
2019-03-30T06:18:57.128Z,7.70
2019-03-30T06:19:57.116Z,7.79
2019-03-30T06:20:57.106Z,8.12
2019-03-30T06:21:57.095Z,8.37
2019-03-30T06:22:57.084Z,8.79
2019-03-30T06:23:57.073Z,9.03
2019-03-30T06:24:57.062Z,9.13
2019-03-30T06:25:57.054Z,9.21
2019-03-30T06:26:57.042Z,9.28
2019-03-30T06:27:57.033Z,9.50
2019-03-30T06:28:57.021Z,9.65
2019-03-30T06:29:57.010Z,9.68
2019-03-30T06:30:57.002Z,9.80
2019-03-30T06:31:56.989Z,9.89
2019-03-30T06:32:56.978Z,9.94
2019-03-30T06:33:56.968Z,9.86
2019-03-30T06:34:56.958Z,9.95
2019-03-30T06:35:56.947Z,10.02
2019-03-30T06:36:56.936Z,10.09
2019-03-30T06:37:56.929Z,10.10
2019-03-30T06:38:56.916Z,10.23
2019-03-30T06:39:56.906Z,10.37
2019-03-30T06:40:56.895Z,10.46
2019-03-30T06:41:56.886Z,10.54
2019-03-30T06:42:56.876Z,10.57
2019-03-30T06:43:56.865Z,10.67
2019-03-30T06:44:56.859Z,10.68
2019-03-30T06:45:56.845Z,10.72
2019-03-30T06:46:56.836Z,10.82
2019-03-30T06:47:56.826Z,10.87
2019-03-30T06:48:56.817Z,10.84
2019-03-30T06:49:56.815Z,10.89
2019-03-30T06:50:56.797Z,11.02
2019-03-30T06:51:56.789Z,10.97
2019-03-30T06:52:58.615Z,11.15
2019-03-30T06:53:56.768Z,11.18
2019-03-30T06:54:56.758Z,11.18
2019-03-30T06:55:56.748Z,11.23
2019-03-30T06:56:56.740Z,11.25
2019-03-30T06:57:56.730Z,11.27
2019-03-30T06:58:56.720Z,11.40
2019-03-30T06:59:56.711Z,11.36
2019-03-30T07:00:56.702Z,11.54
2019-03-30T07:01:56.756Z,11.60
2019-03-30T07:02:56.684Z,11.62
2019-03-30T07:03:56.675Z,11.69
2019-03-30T07:04:56.668Z,11.78
2019-03-30T07:05:56.657Z,11.84
2019-03-30T07:06:56.647Z,11.95
2019-03-30T07:07:56.639Z,11.99
2019-03-30T07:08:56.629Z,12.09
2019-03-30T07:09:56.621Z,12.18
2019-03-30T07:10:56.611Z,12.27
2019-03-30T07:11:56.603Z,12.32
2019-03-30T07:12:56.596Z,12.43
2019-03-30T07:13:56.592Z,12.53
2019-03-30T07:14:56.577Z,12.58
2019-03-30T07:15:56.568Z,12.76
2019-03-30T07:16:56.622Z,12.80
2019-03-30T07:17:56.549Z,12.86
2019-03-30T07:18:56.544Z,12.83
2019-03-30T07:19:56.532Z,12.94
2019-03-30T07:20:56.524Z,13.03
2019-03-30T07:21:56.516Z,13.05
2019-03-30T07:23:10.775Z,13.13
2019-03-30T07:23:56.498Z,13.20
2019-03-30T07:24:56.491Z,13.28
2019-03-30T07:25:56.482Z,13.42
2019-03-30T07:26:56.473Z,13.41
2019-03-30T07:27:56.464Z,13.49
2019-03-30T07:28:56.457Z,13.52
2019-03-30T07:29:56.453Z,13.54
2019-03-30T07:30:56.440Z,13.56
2019-03-30T07:31:56.434Z,13.67
2019-03-30T07:32:56.423Z,13.62
2019-03-30T07:33:56.415Z,13.71
2019-03-30T07:34:56.408Z,13.78
2019-03-30T07:35:56.397Z,13.87
2019-03-30T07:36:56.389Z,13.92
2019-03-30T07:37:56.382Z,13.97
2019-03-30T07:38:56.375Z,14.03
2019-03-30T07:39:56.368Z,14.11
2019-03-30T07:40:56.359Z,14.11
2019-03-30T07:41:56.353Z,14.03
2019-03-30T07:42:56.347Z,14.00
2019-03-30T07:43:56.346Z,14.22
2019-03-30T07:44:56.333Z,14.15
2019-03-30T07:45:56.328Z,14.30
2019-03-30T07:46:56.322Z,14.30
2019-03-30T07:47:56.316Z,14.36
2019-03-30T07:48:56.331Z,14.33
2019-03-30T07:49:56.309Z,14.58
2019-03-30T07:50:56.303Z,14.69
2019-03-30T07:51:56.299Z,14.85
2019-03-30T07:52:56.295Z,15.00
2019-03-30T07:53:56.294Z,15.02
2019-03-30T07:54:56.289Z,15.10
2019-03-30T07:56:07.780Z,15.00
2019-03-30T07:57:05.337Z,14.96
2019-03-30T07:57:56.336Z,15.09
2019-03-30T07:58:56.279Z,15.18
2019-03-30T07:59:56.274Z,15.37
2019-03-30T08:00:56.272Z,15.58
2019-03-30T08:01:56.270Z,15.57
2019-03-30T08:02:56.268Z,15.57
2019-03-30T08:03:56.266Z,15.65
2019-03-30T08:04:56.267Z,15.61
2019-03-30T08:05:56.264Z,15.52
2019-03-30T08:06:56.261Z,15.65
2019-03-30T08:07:56.259Z,15.77
2019-03-30T08:08:56.258Z,15.95
2019-03-30T08:09:56.259Z,15.90
2019-03-30T08:10:56.256Z,15.95
2019-03-30T08:11:56.254Z,16.01
2019-03-30T08:12:56.253Z,16.01
2019-03-30T08:13:56.252Z,16.16
2019-03-30T08:14:56.255Z,16.26
2019-03-30T08:15:56.252Z,16.31
2019-03-30T08:16:56.251Z,16.39
2019-03-30T08:17:56.251Z,16.68
2019-03-30T08:18:56.251Z,16.96
2019-03-30T08:19:56.253Z,16.83
2019-03-30T08:20:56.252Z,16.68
2019-03-30T08:21:56.251Z,16.86
2019-03-30T08:22:56.252Z,16.96
2019-03-30T08:23:56.252Z,17.11
2019-03-30T08:24:56.253Z,17.20
2019-03-30T08:25:56.254Z,17.01
2019-03-30T08:26:56.256Z,17.15
2019-03-30T08:27:56.256Z,17.24
2019-03-30T08:28:56.257Z,17.39
2019-03-30T08:29:56.259Z,17.29
2019-03-30T08:30:56.261Z,16.97
2019-03-30T08:31:56.263Z,16.72
2019-03-30T08:32:56.263Z,16.60
2019-03-30T08:33:56.264Z,16.41
2019-03-30T08:34:56.268Z,16.36
2019-03-30T08:35:56.265Z,16.47
2019-03-30T08:36:59.197Z,16.64
2019-03-30T08:37:56.273Z,16.65
2019-03-30T08:38:56.269Z,16.76
2019-03-30T08:39:56.275Z,17.01
2019-03-30T08:40:56.270Z,17.22
2019-03-30T08:41:56.271Z,17.26
2019-03-30T08:42:56.318Z,17.27
2019-03-30T08:43:56.281Z,17.20
2019-03-30T08:44:56.275Z,17.16
2019-03-30T08:45:56.276Z,17.24
2019-03-30T08:46:56.277Z,17.33
2019-03-30T08:47:56.278Z,17.38
2019-03-30T08:48:56.280Z,17.57
2019-03-30T08:49:56.281Z,17.76
2019-03-30T08:50:56.284Z,17.83
2019-03-30T08:51:56.285Z,17.86
2019-03-30T08:52:56.287Z,17.72
2019-03-30T08:53:56.295Z,17.71
2019-03-30T08:54:56.294Z,17.79
2019-03-30T08:55:56.294Z,17.78
2019-03-30T08:56:56.296Z,17.82
2019-03-30T08:57:56.302Z,17.98
2019-03-30T08:58:56.302Z,17.87
2019-03-30T08:59:56.303Z,18.19
2019-03-30T09:00:56.307Z,18.62
2019-03-30T09:01:56.311Z,18.93
2019-03-30T09:02:56.316Z,18.86
2019-03-30T09:03:56.319Z,18.65
2019-03-30T09:04:56.325Z,18.41
2019-03-30T09:05:56.326Z,18.34
2019-03-30T09:06:56.335Z,17.98
2019-03-30T09:07:56.331Z,18.13
2019-03-30T09:08:56.334Z,18.18
2019-03-30T09:09:56.340Z,18.20
2019-03-30T09:10:56.342Z,18.43
2019-03-30T09:11:56.345Z,18.58
2019-03-30T09:12:56.349Z,18.73
2019-03-30T09:13:56.353Z,18.75
2019-03-30T09:14:56.357Z,18.95
2019-03-30T09:15:56.361Z,19.15
2019-03-30T09:16:56.368Z,19.14
2019-03-30T09:17:56.370Z,19.18
2019-03-30T09:18:56.376Z,18.86
2019-03-30T09:19:56.379Z,18.77
2019-03-30T09:20:56.386Z,18.99
2019-03-30T09:21:56.388Z,18.74
2019-03-30T09:22:56.393Z,18.81
2019-03-30T09:24:08.934Z,18.89
2019-03-30T09:24:56.401Z,18.78
2019-03-30T09:25:56.406Z,19.00
2019-03-30T09:26:56.472Z,19.19
2019-03-30T09:27:56.415Z,19.39
2019-03-30T09:28:56.420Z,19.66
2019-03-30T09:29:56.425Z,19.51
2019-03-30T09:30:56.431Z,19.70
2019-03-30T09:31:56.569Z,19.70
2019-03-30T09:32:56.441Z,19.66
2019-03-30T09:33:56.446Z,19.63
2019-03-30T09:34:56.452Z,19.66
2019-03-30T09:35:56.457Z,19.73
2019-03-30T09:36:56.548Z,19.62
2019-03-30T09:37:56.468Z,19.64
2019-03-30T09:38:56.476Z,19.96
2019-03-30T09:39:56.536Z,20.13
2019-03-30T09:40:56.485Z,20.24
2019-03-30T09:41:56.492Z,20.14
2019-03-30T09:42:56.498Z,20.14
2019-03-30T09:43:56.506Z,19.96
2019-03-30T09:44:56.509Z,19.47
2019-03-30T09:45:56.516Z,19.62
2019-03-30T09:46:56.522Z,19.47
2019-03-30T09:47:56.528Z,18.95
2019-03-30T09:48:56.534Z,18.90
2019-03-30T09:49:56.538Z,19.04
2019-03-30T09:50:56.551Z,19.18
2019-03-30T09:51:56.552Z,19.51
2019-03-30T09:52:56.561Z,19.48
2019-03-30T09:53:56.560Z,19.37
2019-03-30T09:54:56.565Z,19.40
2019-03-30T09:55:56.571Z,19.58
2019-03-30T09:56:56.576Z,19.88
2019-03-30T09:57:56.581Z,20.14
2019-03-30T09:58:56.590Z,20.41
2019-03-30T09:59:56.593Z,20.56
2019-03-30T10:00:56.599Z,20.32
2019-03-30T10:01:56.605Z,20.06
2019-03-30T10:02:56.612Z,20.19
2019-03-30T10:03:56.628Z,20.00
2019-03-30T10:04:56.624Z,20.00
2019-03-30T10:05:56.629Z,20.16
2019-03-30T10:06:56.646Z,20.10
2019-03-30T10:07:56.641Z,19.89
2019-03-30T10:08:56.647Z,19.73
2019-03-30T10:09:56.653Z,19.82
2019-03-30T10:10:56.660Z,19.84
2019-03-30T10:11:56.665Z,20.06
2019-03-30T10:12:56.671Z,20.26
2019-03-30T10:13:56.677Z,20.31
2019-03-30T10:14:56.683Z,20.24
2019-03-30T10:15:56.689Z,20.36
2019-03-30T10:16:56.703Z,20.37
2019-03-30T10:17:56.702Z,20.40
2019-03-30T10:18:56.712Z,20.36
2019-03-30T10:20:04.170Z,20.11
2019-03-30T10:20:56.721Z,19.71
2019-03-30T10:21:56.731Z,19.49
2019-03-30T10:22:56.735Z,19.21
2019-03-30T10:23:56.738Z,19.26
2019-03-30T10:24:58.407Z,19.49
2019-03-30T10:25:56.749Z,19.77
2019-03-30T10:26:56.757Z,20.00
2019-03-30T10:27:56.761Z,20.07
2019-03-30T10:28:56.765Z,20.03
2019-03-30T10:29:56.772Z,20.02
2019-03-30T10:30:56.778Z,20.10
2019-03-30T10:31:59.762Z,20.00
2019-03-30T10:32:56.790Z,20.24
2019-03-30T10:33:56.797Z,20.70
2019-03-30T10:34:56.801Z,20.97
2019-03-30T10:35:56.806Z,20.92
2019-03-30T10:36:56.812Z,21.02
2019-03-30T10:37:56.869Z,20.60
2019-03-30T10:38:56.826Z,20.56
2019-03-30T10:39:56.833Z,20.70
2019-03-30T10:40:56.838Z,20.74
2019-03-30T10:41:56.845Z,20.80
2019-03-30T10:42:56.851Z,20.52
2019-03-30T10:43:56.857Z,20.28
2019-03-30T10:44:56.863Z,20.29
2019-03-30T10:45:56.871Z,19.99
2019-03-30T10:46:56.877Z,20.14
2019-03-30T10:47:56.882Z,20.41
2019-03-30T10:48:56.888Z,20.56
2019-03-30T10:49:56.895Z,20.39
2019-03-30T10:50:56.903Z,20.28
2019-03-30T10:51:56.905Z,20.31
2019-03-30T10:52:56.914Z,20.47
2019-03-30T10:53:56.922Z,20.56
2019-03-30T10:54:56.924Z,20.40
2019-03-30T10:55:56.929Z,20.48
2019-03-30T10:56:56.937Z,20.78
2019-03-30T10:57:58.541Z,20.90
2019-03-30T10:58:56.948Z,21.00
2019-03-30T10:59:56.955Z,21.09
2019-03-30T11:00:56.962Z,20.96
2019-03-30T11:01:56.966Z,21.03
2019-03-30T11:02:56.973Z,20.81
2019-03-30T11:03:56.978Z,20.78
2019-03-30T11:04:57.063Z,20.90
2019-03-30T11:05:56.991Z,20.87
2019-03-30T11:06:57.000Z,20.60
2019-03-30T11:07:57.004Z,20.75
2019-03-30T11:08:57.010Z,20.67
2019-03-30T11:09:57.023Z,20.28
2019-03-30T11:10:57.024Z,20.40
2019-03-30T11:11:57.028Z,20.41
2019-03-30T11:12:57.035Z,20.43
2019-03-30T11:13:57.040Z,20.59
2019-03-30T11:14:57.049Z,20.65
2019-03-30T11:15:57.053Z,20.88
2019-03-30T11:16:57.060Z,21.29
2019-03-30T11:17:57.064Z,21.55
2019-03-30T11:18:57.075Z,21.67
2019-03-30T11:19:57.077Z,21.40
2019-03-30T11:20:57.083Z,21.37
2019-03-30T11:21:57.090Z,21.48
2019-03-30T11:22:57.098Z,21.58
2019-03-30T11:23:57.102Z,21.66
2019-03-30T11:25:07.218Z,21.93
2019-03-30T11:25:57.118Z,21.89
2019-03-30T11:26:57.122Z,21.54
2019-03-30T11:27:57.129Z,21.45
2019-03-30T11:28:57.135Z,21.69
2019-03-30T11:29:57.146Z,21.92
2019-03-30T11:30:57.149Z,22.06
2019-03-30T11:31:57.156Z,22.22
2019-03-30T11:32:57.162Z,22.10
2019-03-30T11:33:57.169Z,21.66
2019-03-30T11:34:57.177Z,21.36
2019-03-30T11:35:57.183Z,21.12
2019-03-30T11:36:57.190Z,21.12
2019-03-30T11:37:57.196Z,21.09
2019-03-30T11:38:57.275Z,21.02
2019-03-30T11:39:57.207Z,21.14
2019-03-30T11:40:57.215Z,20.97
2019-03-30T11:41:57.219Z,21.14
2019-03-30T11:42:57.226Z,21.50
2019-03-30T11:43:57.233Z,21.92
2019-03-30T11:44:57.238Z,21.91
2019-03-30T11:45:57.246Z,21.82
2019-03-30T11:46:57.248Z,21.70
2019-03-30T11:47:57.254Z,21.77
2019-03-30T11:48:57.261Z,21.73
2019-03-30T11:49:57.278Z,21.69
2019-03-30T11:50:57.273Z,21.75
2019-03-30T11:51:57.277Z,21.83
2019-03-30T11:52:57.283Z,22.10
2019-03-30T11:53:57.289Z,21.83
2019-03-30T11:54:57.297Z,21.64
2019-03-30T11:55:57.300Z,21.77
2019-03-30T11:56:57.306Z,21.89
2019-03-30T11:57:57.320Z,21.82
2019-03-30T11:58:57.318Z,21.93
2019-03-30T11:59:57.323Z,21.88
2019-03-30T12:00:57.329Z,21.64
2019-03-30T12:01:57.335Z,21.52
2019-03-30T12:02:57.341Z,21.66
2019-03-30T12:03:57.345Z,21.88
2019-03-30T12:04:57.352Z,21.89
2019-03-30T12:05:57.356Z,21.64
2019-03-30T12:06:57.363Z,21.57
2019-03-30T12:07:57.366Z,21.72
2019-03-30T12:08:57.371Z,21.82
2019-03-30T12:09:57.377Z,22.07
2019-03-30T12:10:57.382Z,22.13
2019-03-30T12:11:57.386Z,22.10
2019-03-30T12:12:57.392Z,22.04
2019-03-30T12:13:57.404Z,21.85
2019-03-30T12:14:57.402Z,22.00
2019-03-30T12:15:57.406Z,21.89
2019-03-30T12:16:57.411Z,22.13
2019-03-30T12:17:57.416Z,22.38
2019-03-30T12:18:57.462Z,22.51
2019-03-30T12:19:57.434Z,22.41
2019-03-30T12:20:57.434Z,22.13
2019-03-30T12:21:57.444Z,22.23
2019-03-30T12:22:57.442Z,22.35
2019-03-30T12:23:57.449Z,22.63
2019-03-30T12:24:57.451Z,22.70
2019-03-30T12:25:57.455Z,23.08
2019-03-30T12:26:57.461Z,22.96
2019-03-30T12:27:57.467Z,22.98
2019-03-30T12:28:57.469Z,22.72
2019-03-30T12:29:57.472Z,22.87
2019-03-30T12:30:57.485Z,22.87
2019-03-30T12:31:57.479Z,22.91
2019-03-30T12:32:57.494Z,23.02
2019-03-30T12:33:57.488Z,23.23
2019-03-30T12:34:57.492Z,23.06
2019-03-30T12:35:57.500Z,23.00
2019-03-30T12:36:57.502Z,22.75
2019-03-30T12:37:57.518Z,23.00
2019-03-30T12:38:57.508Z,23.40
2019-03-30T12:39:58.337Z,23.62
2019-03-30T12:40:57.513Z,23.31
2019-03-30T12:41:57.516Z,23.09
2019-03-30T12:42:57.520Z,23.31
2019-03-30T12:43:57.523Z,23.39
2019-03-30T12:44:57.528Z,23.58
2019-03-30T12:45:57.528Z,23.77
2019-03-30T12:46:57.533Z,23.74
2019-03-30T12:47:57.612Z,23.37
2019-03-30T12:48:57.592Z,23.24
2019-03-30T12:49:57.542Z,22.81
2019-03-30T12:50:57.545Z,22.75
2019-03-30T12:51:57.554Z,22.81
2019-03-30T12:52:57.550Z,22.81
2019-03-30T12:53:57.552Z,22.90
2019-03-30T12:54:57.556Z,23.20
2019-03-30T12:55:57.557Z,23.31
2019-03-30T12:56:57.563Z,23.32
2019-03-30T12:57:57.562Z,23.34
2019-03-30T12:58:57.565Z,23.50
2019-03-30T12:59:59.244Z,23.62
2019-03-30T13:00:57.568Z,23.65
2019-03-30T13:01:57.571Z,23.41
2019-03-30T13:02:57.572Z,23.71
2019-03-30T13:03:57.574Z,23.98
2019-03-30T13:04:57.576Z,24.38